CheckWX is a tool to help pilots better visualize weather data.  It is not intended as a substitute for an official pre-flight weather briefing.

12:56:26 UTC

KFCM METAR
Flying Cloud Airport
Minneapolis, Minnesota, USA
Current

1 hour ago

KFCM 221153Z 00000KT 6SM HZ OVC060 M12/M14 A3038 RMK AO2 SLP308 I6000 T11221139 11111 21128 53003
Observed
Feb-22 @ 11:53 UTC
Visibility
6 SM
Flight Rules
VFR
Conditions
Haze
Cloud Levels
  • Overcast at 6,000' AGL
Temperature
-12°C / 10°F
Dewpoint
-14°C / 7°F
Humidity
85%
Altimeter
30.38" Hg
Pressure
1030.8 hPa
Previous

1 hour ago

KFCM 221142Z AUTO 00000KT 4SM BR SCT002 OVC065 M12/M14 A3038 RMK AO2 T11221144
Observed
Feb-22 @ 11:42 UTC
Visibility
4 SM
Flight Rules
MVFR
Conditions
Mist
Cloud Levels
  • Scattered at 200' AGL
  • Overcast at 6,500' AGL
Temperature
-12°C / 10°F
Dewpoint
-14°C / 7°F
Humidity
85%
Altimeter
30.38" Hg
Pressure
1028.81 hPa
Previous

2 hours ago

KFCM 221053Z AUTO 00000KT 3SM BR OVC003 M13/M15 A3037 RMK AO2 SLP306 T11281150
Observed
Feb-22 @ 10:53 UTC
Visibility
3 SM
Flight Rules
LIFR
Conditions
Mist
Cloud Levels
  • Overcast at 300' AGL
Temperature
-13°C / 9°F
Dewpoint
-15°C / 5°F
Humidity
85%
Altimeter
30.37" Hg
Pressure
1030.6 hPa